createdAt,value
2019-02-02T00:10:42.244Z,95007.11
2019-02-02T00:13:11.883Z,95002.81
2019-02-02T00:15:41.659Z,95001.15
2019-02-02T00:18:11.313Z,95009.05
2019-02-02T00:20:40.985Z,95009.05
2019-02-02T00:23:10.507Z,94997.69
2019-02-02T00:25:40.298Z,94993.27
2019-02-02T00:28:09.795Z,94991.38
2019-02-02T00:30:39.358Z,94984.97
2019-02-02T00:33:09.064Z,95007.70
2019-02-02T00:35:38.535Z,95013.36
2019-02-02T00:38:08.122Z,95009.07
2019-02-02T00:40:37.865Z,95010.16
2019-02-02T00:43:07.475Z,95009.07
2019-02-02T00:45:37.056Z,95004.59
2019-02-02T00:48:06.858Z,95022.98
2019-02-02T00:50:36.583Z,95012.36
2019-02-02T00:53:06.136Z,95011.83
2019-02-02T00:55:35.739Z,95009.42
2019-02-02T00:58:05.936Z,95018.44
2019-02-02T01:00:35.591Z,95012.88
2019-02-02T01:03:05.242Z,95016.44
2019-02-02T01:05:34.970Z,95007.17
2019-02-02T01:08:04.746Z,95000.11
2019-02-02T01:10:35.127Z,94997.14
2019-02-02T01:13:05.023Z,94994.17
2019-02-02T01:15:34.550Z,94988.09
2019-02-02T01:41:13.788Z,94960.06
2019-02-02T01:43:43.563Z,94960.45
2019-02-02T01:46:13.182Z,94964.98
2019-02-02T01:48:42.850Z,94961.56
2019-02-02T01:51:12.636Z,94952.75
2019-02-02T01:53:42.314Z,94950.34
2019-02-02T01:56:11.628Z,94956.87
2019-02-02T01:58:41.228Z,94947.48
2019-02-02T02:01:11.094Z,94949.16
2019-02-02T02:21:03.043Z,94942.03
2019-02-02T02:23:32.868Z,94949.15
2019-02-02T02:26:02.485Z,94936.49
2019-02-02T02:28:32.103Z,94939.88
2019-02-02T02:31:01.799Z,94923.98
2019-02-02T02:33:31.281Z,94924.13
2019-02-02T02:36:00.727Z,94923.23
2019-02-02T02:38:30.473Z,94923.41
2019-02-02T02:41:00.228Z,94933.47
2019-02-02T02:43:29.590Z,94927.14
2019-02-02T02:45:59.146Z,94927.70
2019-02-02T02:48:28.672Z,94936.80
2019-02-02T02:50:58.324Z,94938.40
2019-02-02T02:53:27.877Z,94928.58
2019-02-02T02:55:57.543Z,94932.42
2019-02-02T02:58:27.166Z,94931.48
2019-02-02T03:00:56.837Z,94929.59
2019-02-02T03:03:26.421Z,94942.69
2019-02-02T03:05:56.091Z,94938.80
2019-02-02T03:08:25.819Z,94934.77
2019-02-02T03:10:55.272Z,94936.31
2019-02-02T03:13:25.004Z,94941.67
2019-02-02T03:15:54.991Z,94930.14
2019-02-02T03:18:24.831Z,94927.87
2019-02-02T03:20:54.547Z,94934.71
2019-02-02T03:23:24.207Z,94935.70
2019-02-02T03:25:53.608Z,94934.71
2019-02-02T03:28:23.050Z,94948.45
2019-02-02T03:30:53.163Z,94937.73
2019-02-02T03:33:22.706Z,94943.20
2019-02-02T03:35:52.383Z,94942.88
2019-02-02T03:38:22.339Z,94950.05
2019-02-02T03:40:51.921Z,94942.09
2019-02-02T03:43:21.403Z,94933.25
2019-02-02T03:45:51.380Z,94941.31
2019-02-02T03:48:20.951Z,94939.80
2019-02-02T03:50:50.655Z,94935.53
2019-02-02T03:53:20.311Z,94938.81
2019-02-02T03:55:50.023Z,94944.47
2019-02-02T03:58:19.592Z,94942.78
2019-02-02T04:00:49.237Z,94942.28
2019-02-02T04:03:18.919Z,94946.00
2019-02-02T04:05:48.637Z,94952.12
2019-02-02T04:08:18.459Z,94924.69
2019-02-02T04:10:48.068Z,94917.91
2019-02-02T04:13:17.582Z,94933.45
2019-02-02T04:15:47.246Z,94927.09
2019-02-02T04:18:16.871Z,94928.58
2019-02-02T04:20:46.379Z,94939.78
2019-02-02T04:23:16.013Z,94935.91
2019-02-02T04:25:45.999Z,94943.89
2019-02-02T04:28:15.467Z,94938.07
2019-02-02T04:30:45.263Z,94938.90
2019-02-02T04:33:14.930Z,94940.98
2019-02-02T04:35:44.523Z,94939.91
2019-02-02T04:38:14.374Z,94935.53
2019-02-02T04:40:43.967Z,94931.27
2019-02-02T04:43:13.667Z,94933.77
2019-02-02T04:45:43.467Z,94937.92
2019-02-02T04:48:13.187Z,94942.19
2019-02-02T05:08:04.790Z,94951.36
2019-02-02T05:10:34.499Z,94943.90
2019-02-02T05:13:04.308Z,94939.23
2019-02-02T05:15:33.788Z,94946.98
2019-02-02T05:18:03.319Z,94938.24
2019-02-02T05:20:33.788Z,94939.74
2019-02-02T05:23:03.511Z,94946.78
2019-02-02T05:25:33.213Z,94945.89
2019-02-02T05:28:03.327Z,94946.29
2019-02-02T05:30:33.040Z,94947.07
2019-02-02T05:33:02.671Z,94940.23
2019-02-02T05:35:32.255Z,94945.75
2019-02-02T05:38:02.108Z,94940.91
2019-02-02T05:40:31.729Z,94955.52
2019-02-02T05:43:01.405Z,94963.06
2019-02-02T05:45:31.020Z,94947.28
2019-02-02T05:48:00.626Z,94953.94
2019-02-02T05:50:30.229Z,94960.98
2019-02-02T05:52:59.859Z,94957.82
2019-02-02T05:55:29.439Z,94949.55
2019-02-02T05:57:59.247Z,94959.20
2019-02-02T06:00:41.545Z,94982.14
2019-02-02T06:03:11.287Z,94973.70
2019-02-02T06:05:40.781Z,94967.15
2019-02-02T06:08:10.581Z,94979.05
2019-02-02T06:10:40.323Z,94990.40
2019-02-02T06:13:09.832Z,94967.74
2019-02-02T06:15:39.606Z,94974.00
2019-02-02T06:35:31.303Z,94981.13
2019-02-02T06:38:01.064Z,94988.90
2019-02-02T06:40:30.446Z,95004.10
2019-02-02T06:43:00.004Z,95001.90
2019-02-02T06:45:32.659Z,94974.84
2019-02-02T06:48:02.450Z,95018.71
2019-02-02T06:50:31.900Z,94995.61
2019-02-02T06:53:01.936Z,95011.16
2019-02-02T06:55:31.516Z,94992.34
2019-02-02T06:58:00.873Z,95019.70
2019-02-02T07:00:30.712Z,95009.45
2019-02-02T07:03:00.385Z,94996.42
2019-02-02T07:22:52.005Z,95006.25
2019-02-02T07:25:21.590Z,95020.77
2019-02-02T07:27:51.191Z,95014.02
2019-02-02T07:30:28.677Z,95004.05
2019-02-02T07:32:51.029Z,95011.48
2019-02-02T07:35:20.036Z,95015.72
2019-02-02T07:37:49.847Z,94988.13
2019-02-02T07:57:41.108Z,94976.79
2019-02-02T08:00:38.967Z,94978.94
2019-02-02T08:02:57.000Z,94972.73
2019-02-02T08:22:50.412Z,94971.44
2019-02-02T08:25:20.009Z,94969.58
2019-02-02T08:45:12.111Z,94955.34
2019-02-02T09:05:04.195Z,94961.05
2019-02-02T09:07:34.074Z,94962.73
2019-02-02T09:10:03.869Z,94967.17
2019-02-02T09:12:33.514Z,94958.53
2019-02-02T09:15:02.961Z,94954.52
2019-02-02T09:17:32.515Z,94969.17
2019-02-02T09:20:02.531Z,94964.28
2019-02-02T09:42:48.509Z,94976.55
2019-02-02T09:45:18.868Z,94962.23
2019-02-02T09:47:48.475Z,94955.63
2019-02-02T10:07:40.480Z,94954.73
2019-02-02T10:10:13.567Z,94947.38
2019-02-02T10:12:43.242Z,94947.72
2019-02-02T10:15:12.905Z,94939.91
2019-02-02T10:17:42.505Z,94934.59
2019-02-02T10:20:14.277Z,94932.99
2019-02-02T10:40:07.256Z,94909.27
2019-02-02T10:42:36.856Z,94901.91
2019-02-02T10:45:07.648Z,94900.40
2019-02-02T10:47:37.394Z,94881.77
2019-02-02T10:50:08.280Z,94882.62
2019-02-02T11:09:59.437Z,94858.95
2019-02-02T11:12:29.091Z,94864.63
2019-02-02T11:14:58.841Z,94859.44
2019-02-02T11:17:28.510Z,94850.19
2019-02-02T11:19:58.025Z,94860.67
2019-02-02T11:22:27.921Z,94863.63
2019-02-02T11:24:57.219Z,94868.59
2019-02-02T11:27:28.036Z,94870.99
2019-02-02T11:29:57.628Z,94875.29
2019-02-02T11:32:27.136Z,94864.15
2019-02-02T11:34:56.724Z,94857.94
2019-02-02T11:37:26.350Z,94858.39
2019-02-02T11:39:55.881Z,94848.82
2019-02-02T11:42:25.511Z,94857.52
2019-02-02T11:44:54.866Z,94866.79
2019-02-02T11:47:24.475Z,94855.81
2019-02-02T11:49:54.175Z,94848.19
2019-02-02T11:52:23.731Z,94838.97
2019-02-02T11:54:53.346Z,94842.86
2019-02-02T11:57:23.098Z,94831.50
2019-02-02T11:59:52.931Z,94827.52
2019-02-02T12:02:23.144Z,94819.64
2019-02-02T12:04:52.790Z,94824.33
2019-02-02T12:07:22.467Z,94823.75
2019-02-02T12:09:52.172Z,94816.09
2019-02-02T12:12:22.047Z,94806.88
2019-02-02T12:32:25.594Z,94785.01
2019-02-02T12:34:43.679Z,94784.17
2019-02-02T12:54:34.897Z,94780.27
2019-02-02T12:57:04.733Z,94789.64
2019-02-02T12:59:34.404Z,94788.09
2019-02-02T13:02:03.821Z,94787.89
2019-02-02T13:21:56.100Z,94800.56
2019-02-02T13:24:25.645Z,94805.19
2019-02-02T13:26:55.289Z,94811.16
2019-02-02T13:29:25.441Z,94806.72
2019-02-02T13:31:54.916Z,94802.73
2019-02-02T13:34:24.516Z,94817.44
2019-02-02T13:36:54.079Z,94815.56
2019-02-02T13:39:23.681Z,94816.86
2019-02-02T13:41:53.355Z,94827.25
2019-02-02T13:44:22.877Z,94821.77
2019-02-02T13:46:52.460Z,94824.93
2019-02-02T13:49:22.224Z,94824.67
2019-02-02T13:51:51.824Z,94820.75
2019-02-02T13:54:21.457Z,94821.66
2019-02-02T13:56:51.180Z,94815.66
2019-02-02T13:59:20.727Z,94812.97
2019-02-02T14:01:50.408Z,94806.75
2019-02-02T14:04:19.895Z,94807.48
2019-02-02T14:24:11.095Z,94792.59
2019-02-02T14:26:40.531Z,94815.94
2019-02-02T14:29:09.901Z,94816.86
2019-02-02T14:31:40.594Z,94815.48
2019-02-02T14:51:32.413Z,94816.61
2019-02-02T14:54:02.087Z,94812.28
2019-02-02T14:56:31.651Z,94811.99
2019-02-02T14:59:03.556Z,94820.69
2019-02-02T15:01:31.404Z,94818.11
2019-02-02T15:04:01.118Z,94814.52
2019-02-02T15:06:30.720Z,94790.26
2019-02-02T15:09:00.441Z,94802.64
2019-02-02T15:11:30.024Z,94809.33
2019-02-02T15:13:59.625Z,94799.91
2019-02-02T15:16:29.232Z,94788.60
2019-02-02T15:18:59.014Z,94805.53
2019-02-02T15:21:28.579Z,94806.20
2019-02-02T15:23:58.198Z,94810.70
2019-02-02T15:26:27.690Z,94802.58
2019-02-02T15:28:57.483Z,94814.23
2019-02-02T15:31:27.136Z,94815.91
2019-02-02T15:33:56.807Z,94803.20
2019-02-02T15:36:26.313Z,94800.45
2019-02-02T15:38:55.860Z,94805.06
2019-02-02T15:41:25.461Z,94804.27
2019-02-02T15:43:55.139Z,94805.97
2019-02-02T15:46:24.883Z,94813.57
2019-02-02T15:48:54.659Z,94810.36
2019-02-02T15:51:24.264Z,94810.05
2019-02-02T15:53:53.972Z,94810.28
2019-02-02T15:56:23.465Z,94807.31
2019-02-02T15:58:53.021Z,94808.50
2019-02-02T16:01:22.541Z,94813.09
2019-02-02T16:03:52.093Z,94814.16
2019-02-02T16:06:22.116Z,94807.69
2019-02-02T16:08:52.394Z,94812.16
2019-02-02T16:11:22.079Z,94813.80
2019-02-02T16:13:51.760Z,94816.77
2019-02-02T16:16:21.362Z,94829.67
2019-02-02T16:18:50.974Z,94824.89
2019-02-02T16:21:20.708Z,94820.34
2019-02-02T16:23:50.344Z,94830.19
2019-02-02T16:26:19.917Z,94833.86
2019-02-02T16:28:49.409Z,94822.56
2019-02-02T16:31:19.349Z,94826.81
2019-02-02T16:34:01.202Z,94821.13
2019-02-02T16:36:19.986Z,94824.71
2019-02-02T16:38:49.724Z,94827.08
2019-02-02T16:41:19.411Z,94817.45
2019-02-02T16:43:49.031Z,94817.34
2019-02-02T16:46:18.683Z,94830.28
2019-02-02T16:48:48.353Z,94842.48
2019-02-02T16:51:17.719Z,94833.13
2019-02-02T16:53:48.512Z,94840.42
2019-02-02T16:56:21.496Z,94842.02
2019-02-02T16:58:51.236Z,94817.76
2019-02-02T17:01:20.784Z,94810.78
2019-02-02T17:03:50.412Z,94828.62
2019-02-02T17:06:19.885Z,94832.46
2019-02-02T17:08:49.491Z,94821.89
2019-02-02T17:11:20.033Z,94829.83
2019-02-02T17:13:52.380Z,94829.42
2019-02-02T17:16:19.127Z,94836.70
2019-02-02T17:18:48.865Z,94842.94
2019-02-02T17:21:18.428Z,94848.23
2019-02-02T17:23:48.095Z,94846.75
2019-02-02T17:26:17.796Z,94849.00
2019-02-02T17:28:47.187Z,94856.61
2019-02-02T17:31:16.936Z,94850.19
2019-02-02T17:33:46.496Z,94860.24
2019-02-02T17:36:17.639Z,94857.84
2019-02-02T17:38:47.267Z,94854.41
2019-02-02T17:41:16.947Z,94853.94
2019-02-02T17:43:46.588Z,94849.80
2019-02-02T17:46:16.053Z,94852.78
2019-02-02T17:48:45.846Z,94852.94
2019-02-02T17:51:15.544Z,94854.59
2019-02-02T17:53:45.104Z,94868.33
2019-02-02T17:56:14.856Z,94866.76
2019-02-02T17:58:44.435Z,94848.01
2019-02-02T18:01:14.194Z,94858.42
2019-02-02T18:03:43.909Z,94847.12
2019-02-02T18:06:13.707Z,94836.70
2019-02-02T18:08:43.327Z,94853.73
2019-02-02T18:11:12.974Z,94846.83
2019-02-02T18:13:42.789Z,94851.00
2019-02-02T18:16:12.547Z,94838.53
2019-02-02T18:18:42.208Z,94843.47
2019-02-02T18:21:12.065Z,94848.50
2019-02-02T18:23:42.279Z,94822.62
2019-02-02T18:26:11.782Z,94825.02
2019-02-02T18:28:41.436Z,94842.45
2019-02-02T18:31:11.191Z,94838.79
2019-02-02T18:33:40.882Z,94852.03
2019-02-02T18:36:10.551Z,94852.16
2019-02-02T18:38:40.216Z,94853.05
2019-02-02T18:41:10.295Z,94854.62
2019-02-02T18:43:40.098Z,94862.86
2019-02-02T18:46:09.547Z,94874.09
2019-02-02T18:48:39.268Z,94846.19
2019-02-02T18:51:08.800Z,94870.03
2019-02-02T18:53:38.375Z,94866.34
2019-02-02T18:56:12.926Z,94873.24
2019-02-02T18:58:42.442Z,94875.50
2019-02-02T19:01:12.055Z,94874.14
2019-02-02T19:03:41.575Z,94883.52
2019-02-02T19:06:11.136Z,94880.11
2019-02-02T19:08:40.732Z,94865.14
2019-02-02T19:11:10.485Z,94875.17
2019-02-02T19:13:40.088Z,94886.88
2019-02-02T19:16:09.784Z,94879.72
2019-02-02T19:18:39.504Z,94883.28
2019-02-02T19:21:09.036Z,94883.64
2019-02-02T19:23:38.539Z,94896.44
2019-02-02T19:26:08.356Z,94893.11
2019-02-02T19:28:39.956Z,94880.72
2019-02-02T19:31:07.447Z,94901.91
2019-02-02T19:33:37.281Z,94885.09
2019-02-02T19:36:06.837Z,94890.21
2019-02-02T19:38:36.848Z,94897.98
2019-02-02T19:41:06.760Z,94870.16
2019-02-02T19:43:36.275Z,94894.73
2019-02-02T19:46:05.979Z,94886.22
2019-02-02T19:48:35.744Z,94878.44
2019-02-02T19:51:05.465Z,94882.25
2019-02-02T19:53:35.252Z,94876.59
2019-02-02T19:56:05.015Z,94882.80
2019-02-02T19:58:34.730Z,94879.87
2019-02-02T20:01:04.531Z,94875.23
2019-02-02T20:03:34.042Z,94895.20
2019-02-02T20:06:03.695Z,94886.16
2019-02-02T20:08:33.154Z,94889.44
2019-02-02T20:11:02.772Z,94880.16
2019-02-02T20:13:32.380Z,94891.12
2019-02-02T20:16:04.100Z,94878.86
2019-02-02T20:18:31.855Z,94876.12
2019-02-02T20:21:01.279Z,94888.58
2019-02-02T20:23:30.946Z,94878.05
2019-02-02T20:26:00.563Z,94880.52
2019-02-02T20:28:30.235Z,94881.83
2019-02-02T20:30:59.993Z,94875.64
2019-02-02T20:33:29.695Z,94895.89
2019-02-02T20:35:59.371Z,94883.16
2019-02-02T20:38:28.888Z,94883.66
2019-02-02T20:40:59.351Z,94887.86
2019-02-02T20:43:29.093Z,94886.72
2019-02-02T20:45:58.615Z,94877.16
2019-02-02T20:48:28.268Z,94888.09
2019-02-02T20:50:57.797Z,94885.08
2019-02-02T20:53:27.353Z,94891.53
2019-02-02T20:55:56.888Z,94887.48
2019-02-02T20:58:26.358Z,94868.48
2019-02-02T21:00:55.860Z,94882.97
2019-02-02T21:03:25.632Z,94865.39
2019-02-02T21:05:55.072Z,94877.38
2019-02-02T21:08:24.742Z,94864.52
2019-02-02T21:10:54.243Z,94873.53
2019-02-02T21:13:24.428Z,94866.09
2019-02-02T21:15:53.921Z,94891.94
2019-02-02T21:18:23.587Z,94891.98
2019-02-02T21:20:53.236Z,94878.85
2019-02-02T21:23:23.036Z,94890.53
2019-02-02T21:25:52.699Z,94888.11
2019-02-02T21:28:22.306Z,94890.11
2019-02-02T21:30:51.876Z,94893.85
2019-02-02T21:33:21.564Z,94896.72
2019-02-02T21:35:51.105Z,94889.38
2019-02-02T21:38:20.684Z,94889.11
2019-02-02T21:40:50.427Z,94892.30
2019-02-02T21:43:19.932Z,94904.06
2019-02-02T21:45:49.399Z,94895.20
2019-02-02T21:48:20.505Z,94899.02
2019-02-02T21:50:50.193Z,94912.35
2019-02-02T21:53:19.953Z,94902.42
2019-02-02T21:55:49.539Z,94902.69
2019-02-02T21:58:18.920Z,94903.27
2019-02-02T22:00:48.523Z,94903.00
2019-02-02T22:03:18.160Z,94918.13
2019-02-02T22:05:47.742Z,94892.63
2019-02-02T22:08:17.619Z,94924.87
2019-02-02T22:10:47.418Z,94904.30
2019-02-02T22:13:17.008Z,94910.91
2019-02-02T22:15:46.675Z,94929.34
2019-02-02T22:18:16.376Z,94906.17
2019-02-02T22:20:45.885Z,94921.72
2019-02-02T22:23:15.488Z,94917.08
2019-02-02T22:25:45.251Z,94913.59
2019-02-02T22:28:14.818Z,94926.47
2019-02-02T22:30:44.588Z,94933.79
2019-02-02T22:33:13.986Z,94919.98
2019-02-02T22:35:43.344Z,94926.75
2019-02-02T22:38:13.110Z,94936.14
2019-02-02T22:40:42.756Z,94938.87
2019-02-02T22:43:12.307Z,94931.75
2019-02-02T22:45:41.893Z,94941.91
2019-02-02T22:48:11.421Z,94935.64
2019-02-02T22:50:40.888Z,94928.94
2019-02-02T22:53:10.572Z,94924.83
2019-02-02T22:55:40.238Z,94930.51
2019-02-02T22:58:09.881Z,94930.59
2019-02-02T23:00:49.884Z,94916.19
2019-02-02T23:03:20.161Z,94916.38
2019-02-02T23:06:05.973Z,94925.19
2019-02-02T23:10:51.076Z,94936.28
2019-02-02T23:14:33.473Z,94929.21
2019-02-02T23:17:03.185Z,94916.23
2019-02-02T23:19:32.644Z,94913.36
2019-02-02T23:22:02.319Z,94921.99
2019-02-02T23:24:31.839Z,94916.55
2019-02-02T23:27:01.392Z,94907.60
2019-02-02T23:29:30.829Z,94901.84
2019-02-02T23:32:00.564Z,94917.84
2019-02-02T23:34:30.156Z,94909.97
2019-02-02T23:36:59.799Z,94918.81
2019-02-02T23:39:29.214Z,94909.38
2019-02-02T23:41:58.931Z,94911.90
2019-02-02T23:44:28.472Z,94908.18
2019-02-02T23:46:58.179Z,94913.64
2019-02-02T23:49:27.794Z,94908.40
2019-02-02T23:51:57.395Z,94910.06
2019-02-02T23:54:27.209Z,94898.17
2019-02-02T23:56:56.931Z,94917.83
2019-02-02T23:59:26.520Z,94900.23
